Time;durP1;ratioP1;P1;durP2;ratioP2;P2;SDS_P1;SDS_P2;PMS_P1;PMS_P2;Temp;Humidity;BMP_temperature;BMP_pressure;BME280_temperature;BME280_humidity;BME280_pressure;Samples;Min_cycle;Max_cycle;Signal;HPM_P1;HPM_P2
2022/03/12 00:00:43;;;;;;;10.00;5.60;;;3.00;56.00;;;;;;4690357;28;10000439;-67
2022/03/12 00:03:10;;;;;;;10.95;5.50;;;2.90;55.50;;;;;;5031888;28;20113;-67
2022/03/12 00:05:37;;;;;;;8.20;5.13;;;2.90;56.10;;;;;;5036288;28;20282;-67
2022/03/12 00:08:04;;;;;;;8.38;5.30;;;2.80;56.60;;;;;;5048934;28;20400;-67
2022/03/12 00:10:32;;;;;;;9.73;5.32;;;2.80;56.90;;;;;;5046759;28;20020;-68
2022/03/12 00:13:01;;;;;;;9.95;5.35;;;2.70;57.70;;;;;;5043047;28;20041;-67
2022/03/12 00:15:33;;;;;;;18.17;9.05;;;2.70;59.00;;;;;;5045180;28;20057;-67
2022/03/12 00:17:59;;;;;;;12.23;7.30;;;2.70;57.80;;;;;;5041115;28;20385;-67
2022/03/12 00:20:28;;;;;;;9.57;5.60;;;2.70;57.50;;;;;;5034649;28;20032;-67
2022/03/12 00:22:54;;;;;;;9.35;5.97;;;2.70;58.20;;;;;;5048540;28;20489;-67
2022/03/12 00:25:26;;;;;;;9.13;5.60;;;2.80;57.00;;;;;;5044016;28;20477;-67
2022/03/12 00:27:52;;;;;;;9.25;6.05;;;2.90;57.50;;;;;;5036359;28;20046;-67
2022/03/12 00:30:24;;;;;;;12.65;5.25;;;2.80;58.90;;;;;;5044108;28;20123;-67
2022/03/12 00:32:53;;;;;;;10.13;5.70;;;2.80;60.50;;;;;;5043963;28;20042;-67
2022/03/12 00:35:20;;;;;;;11.23;5.75;;;2.70;62.10;;;;;;5041858;28;20032;-67
2022/03/12 00:37:46;;;;;;;8.32;5.25;;;2.70;61.80;;;;;;5039628;28;20061;-67
2022/03/12 00:40:14;;;;;;;7.90;4.82;;;2.70;61.20;;;;;;5042230;28;20025;-67
2022/03/12 00:42:40;;;;;;;6.65;4.82;;;2.60;60.50;;;;;;5037997;28;20128;-67
2022/03/12 00:45:07;;;;;;;8.32;4.68;;;2.60;59.00;;;;;;5044508;28;20112;-67
2022/03/12 00:47:33;;;;;;;9.27;5.45;;;2.60;59.80;;;;;;5031309;28;20037;-67
2022/03/12 00:49:58;;;;;;;10.70;4.65;;;2.70;60.10;;;;;;5045608;28;20033;-67
2022/03/12 00:52:24;;;;;;;9.73;5.22;;;2.80;61.30;;;;;;5048328;28;20086;-67
2022/03/12 00:54:49;;;;;;;7.32;5.00;;;2.80;59.60;;;;;;5035173;28;20257;-67
2022/03/12 00:57:15;;;;;;;10.52;5.40;;;2.90;59.30;;;;;;5037737;28;20388;-67
2022/03/12 00:59:42;;;;;;;8.55;5.07;;;2.90;59.30;;;;;;5036723;28;20053;-67
2022/03/12 01:02:13;;;;;;;8.55;4.95;;;2.80;59.40;;;;;;5041234;28;20035;-67
2022/03/12 01:04:39;;;;;;;11.00;5.30;;;2.80;59.00;;;;;;5035006;28;20116;-67
2022/03/12 01:07:04;;;;;;;9.15;5.10;;;2.70;62.80;;;;;;5047523;28;20162;-67
2022/03/12 01:09:30;;;;;;;8.63;5.00;;;2.60;60.40;;;;;;5037272;28;20396;-67
2022/03/12 01:11:56;;;;;;;7.35;4.80;;;2.50;59.00;;;;;;5048217;28;20048;-67
2022/03/12 01:14:22;;;;;;;7.72;4.63;;;2.50;57.00;;;;;;5043020;28;20110;-67
2022/03/12 01:16:47;;;;;;;8.63;5.10;;;2.50;56.10;;;;;;5050463;28;20025;-67
2022/03/12 01:19:15;;;;;;;9.60;4.97;;;2.50;56.40;;;;;;5051266;28;20496;-67
2022/03/12 01:21:41;;;;;;;8.35;4.65;;;2.60;56.50;;;;;;5033602;28;20972;-67
2022/03/12 01:24:07;;;;;;;6.88;4.60;;;2.60;57.60;;;;;;5044579;28;20029;-67
2022/03/12 01:26:34;;;;;;;9.38;4.57;;;2.70;57.00;;;;;;5040402;28;20562;-67
2022/03/12 01:29:00;;;;;;;8.07;4.78;;;2.70;56.00;;;;;;5029471;28;20060;-67
2022/03/12 01:31:26;;;;;;;8.80;4.90;;;2.70;54.40;;;;;;5045917;28;20041;-67
2022/03/12 01:33:51;;;;;;;12.02;5.47;;;2.70;54.00;;;;;;5038489;28;20479;-67
2022/03/12 01:36:17;;;;;;;32.45;12.45;;;2.60;54.10;;;;;;5040689;28;20025;-67
2022/03/12 01:38:52;;;;;;;37.53;14.63;;;2.60;52.20;;;;;;5035065;28;20728;-67
2022/03/12 01:41:29;;;;;;;36.67;11.55;;;2.60;52.20;;;;;;5051808;28;20029;-67
2022/03/12 01:43:57;;;;;;;14.32;6.88;;;2.60;52.10;;;;;;5037540;28;20079;-67
2022/03/12 01:46:34;;;;;;;12.85;6.32;;;2.60;52.80;;;;;;5035656;28;20056;-67
2022/03/12 01:49:04;;;;;;;14.98;7.22;;;2.50;52.40;;;;;;5045939;28;20075;-67
2022/03/12 01:51:30;;;;;;;21.42;9.95;;;2.50;52.30;;;;;;5047618;28;20033;-67
2022/03/12 01:53:56;;;;;;;16.90;8.60;;;2.50;51.60;;;;;;5038836;28;20108;-67
2022/03/12 01:56:28;;;;;;;11.60;5.97;;;2.50;53.70;;;;;;5028518;28;20205;-67
2022/03/12 01:58:54;;;;;;;10.98;6.03;;;2.50;53.60;;;;;;5036250;28;20041;-67
2022/03/12 02:01:20;;;;;;;10.93;5.57;;;2.40;55.00;;;;;;5043457;28;20104;-67
2022/03/12 02:03:47;;;;;;;13.13;6.43;;;2.40;56.60;;;;;;5045515;28;20049;-66
2022/03/12 02:06:21;;;;;;;11.82;6.55;;;2.30;58.60;;;;;;5042098;28;20224;-67
2022/03/12 02:08:49;;;;;;;12.95;6.80;;;2.20;56.60;;;;;;5044753;28;20637;-66
2022/03/12 02:11:25;;;;;;;10.45;5.80;;;2.20;58.20;;;;;;5035735;28;20041;-66
2022/03/12 02:13:59;;;;;;;9.93;5.30;;;2.10;60.20;;;;;;5050137;28;20032;-66
2022/03/12 02:16:27;;;;;;;12.48;6.47;;;2.00;59.60;;;;;;5051697;28;20083;-67
2022/03/12 02:18:53;;;;;;;15.60;7.35;;;1.90;71.30;;;;;;5035222;28;20025;-67
2022/03/12 02:21:41;;;;;;;15.00;6.80;;;1.80;66.10;;;;;;5034789;28;20091;-67
2022/03/12 02:24:11;;;;;;;18.30;8.30;;;1.70;60.80;;;;;;5042453;28;20029;-67
2022/03/12 02:26:38;;;;;;;18.00;8.50;;;1.70;60.10;;;;;;5031348;28;20047;-67
2022/03/12 02:29:08;;;;;;;12.18;6.47;;;1.60;60.10;;;;;;5036691;28;20060;-67
2022/03/12 02:31:34;;;;;;;20.08;8.55;;;1.60;59.70;;;;;;5037412;28;20043;-67
2022/03/12 02:34:01;;;;;;;64.22;20.63;;;1.60;59.80;;;;;;5036868;28;20033;-67
2022/03/12 02:36:28;;;;;;;53.60;17.67;;;1.60;59.30;;;;;;5043412;28;20090;-67
2022/03/12 02:38:54;;;;;;;45.38;15.15;;;1.60;59.00;;;;;;5036728;28;20033;-67
2022/03/12 02:41:22;;;;;;;38.35;13.38;;;1.50;59.70;;;;;;5033149;28;20029;-67
2022/03/12 02:43:48;;;;;;;30.77;11.43;;;1.60;61.30;;;;;;5037368;28;20230;-67
2022/03/12 02:46:14;;;;;;;24.23;8.95;;;1.60;62.90;;;;;;5035347;28;20032;-67
2022/03/12 02:48:42;;;;;;;38.97;13.27;;;1.60;62.70;;;;;;5033323;28;20560;-67
2022/03/12 02:51:08;;;;;;;43.42;15.57;;;1.60;62.80;;;;;;5032935;28;20036;-67
2022/03/12 02:53:34;;;;;;;27.23;10.88;;;1.60;62.60;;;;;;5038754;28;20033;-66
2022/03/12 02:55:59;;;;;;;16.92;7.90;;;1.60;63.30;;;;;;5042494;28;20383;-67
2022/03/12 02:58:26;;;;;;;21.10;8.07;;;1.60;63.40;;;;;;5040379;28;20021;-67
2022/03/12 03:00:53;;;;;;;18.10;7.15;;;1.60;63.80;;;;;;5042865;28;20025;-67
2022/03/12 03:03:19;;;;;;;14.40;6.85;;;1.60;63.30;;;;;;5040205;28;20551;-67
2022/03/12 03:05:47;;;;;;;19.75;7.38;;;1.50;63.60;;;;;;5032884;28;20037;-67
2022/03/12 03:08:20;;;;;;;15.95;7.30;;;1.60;65.10;;;;;;5047154;28;20438;-67
2022/03/12 03:10:50;;;;;;;18.75;6.75;;;1.60;64.50;;;;;;5038736;28;20029;-67
2022/03/12 03:13:30;;;;;;;15.80;6.80;;;1.60;63.90;;;;;;5034690;28;20547;-67
2022/03/12 03:15:59;;;;;;;21.10;9.15;;;1.60;65.10;;;;;;5039183;28;20083;-67
2022/03/12 03:18:28;;;;;;;19.75;7.55;;;1.60;63.70;;;;;;5051520;28;20022;-67
2022/03/12 03:20:54;;;;;;;14.20;6.40;;;1.60;65.30;;;;;;5040705;28;20025;-66
2022/03/12 03:23:22;;;;;;;11.20;5.93;;;1.60;64.40;;;;;;5033626;28;20028;-66
2022/03/12 03:25:48;;;;;;;12.00;5.38;;;1.60;65.10;;;;;;5036351;28;20060;-67
2022/03/12 03:28:14;;;;;;;10.43;5.25;;;1.60;64.80;;;;;;5034516;28;20490;-67
2022/03/12 03:30:40;;;;;;;11.95;5.35;;;1.60;65.40;;;;;;5047087;28;20271;-67
2022/03/12 03:33:08;;;;;;;9.75;5.05;;;1.50;67.40;;;;;;5046594;28;20115;-67
2022/03/12 03:35:34;;;;;;;16.48;6.40;;;1.60;67.30;;;;;;5043083;28;20036;-67
2022/03/12 03:37:59;;;;;;;8.20;4.60;;;1.60;66.80;;;;;;5033729;28;20033;-67
2022/03/12 03:40:26;;;;;;;8.35;4.68;;;1.60;65.70;;;;;;5044751;28;20029;-67
2022/03/12 03:42:53;;;;;;;5.95;3.95;;;1.70;66.20;;;;;;5029593;28;20397;-66
2022/03/12 03:45:24;;;;;;;7.82;4.03;;;1.70;65.60;;;;;;5044285;28;20236;-67
2022/03/12 03:47:51;;;;;;;9.52;4.53;;;1.70;66.00;;;;;;5045357;28;20029;-67
2022/03/12 03:50:20;;;;;;;8.32;4.45;;;1.70;66.80;;;;;;5046134;28;20086;-67
2022/03/12 03:52:46;;;;;;;11.00;5.30;;;1.70;67.80;;;;;;5042418;28;20049;-66
2022/03/12 03:55:12;;;;;;;8.90;5.20;;;1.70;66.20;;;;;;5035221;28;20048;-67
2022/03/12 03:57:38;;;;;;;7.72;4.75;;;1.60;65.00;;;;;;5040042;28;20075;-66
2022/03/12 04:00:05;;;;;;;10.55;4.45;;;1.70;64.50;;;;;;5036892;28;20179;-67
2022/03/12 04:02:32;;;;;;;9.88;4.97;;;1.70;64.30;;;;;;5036164;28;20028;-67
2022/03/12 04:04:57;;;;;;;9.70;5.40;;;1.70;65.60;;;;;;5043812;28;20555;-67
2022/03/12 04:07:23;;;;;;;7.63;4.75;;;1.70;64.70;;;;;;5039575;28;20040;-66
2022/03/12 04:09:48;;;;;;;6.25;4.20;;;1.80;64.70;;;;;;5035218;28;20503;-67
2022/03/12 04:12:14;;;;;;;7.07;4.53;;;1.90;66.30;;;;;;5028413;28;20052;-66
2022/03/12 04:14:40;;;;;;;8.43;4.43;;;1.90;65.00;;;;;;5043354;28;20028;-67
2022/03/12 04:17:05;;;;;;;6.18;4.05;;;2.00;63.00;;;;;;5030144;28;20046;-67
2022/03/12 04:19:33;;;;;;;6.63;3.92;;;2.00;64.70;;;;;;5043781;28;20017;-66
2022/03/12 04:21:58;;;;;;;8.23;4.60;;;2.00;63.30;;;;;;5033301;28;20029;-67
2022/03/12 04:24:25;;;;;;;7.63;4.75;;;2.00;62.50;;;;;;5017655;28;20036;-67
2022/03/12 04:26:51;;;;;;;14.30;5.25;;;2.10;65.10;;;;;;5027408;28;20026;-67
2022/03/12 04:29:18;;;;;;;6.70;4.30;;;2.20;65.10;;;;;;5030065;28;20148;-67
2022/03/12 04:31:47;;;;;;;9.50;4.60;;;2.20;63.60;;;;;;5041234;28;20033;-67
2022/03/12 04:34:13;;;;;;;8.23;4.82;;;2.20;64.20;;;;;;5036924;28;20030;-66
2022/03/12 04:36:41;;;;;;;7.93;4.45;;;2.30;65.50;;;;;;5039369;28;20021;-66
2022/03/12 04:39:09;;;;;;;6.55;3.78;;;2.30;63.90;;;;;;5047259;28;20890;-67
2022/03/12 04:41:35;;;;;;;7.50;3.92;;;2.30;63.80;;;;;;5048069;28;20036;-66
2022/03/12 04:44:04;;;;;;;7.68;4.15;;;2.30;64.40;;;;;;5041979;28;20029;-66
2022/03/12 04:46:30;;;;;;;8.27;4.47;;;2.30;65.50;;;;;;5037782;28;20382;-67
2022/03/12 04:48:55;;;;;;;7.90;3.97;;;2.30;65.30;;;;;;5039104;28;20127;-67
2022/03/12 04:51:21;;;;;;;10.60;4.53;;;2.30;64.00;;;;;;5033697;28;20120;-66
2022/03/12 04:53:46;;;;;;;7.45;4.22;;;2.30;65.20;;;;;;5030226;28;20029;-66
2022/03/12 04:56:12;;;;;;;7.30;4.25;;;2.40;64.20;;;;;;5034955;28;20051;-67
2022/03/12 04:58:38;;;;;;;7.18;4.38;;;2.40;64.10;;;;;;5039834;28;20165;-66
2022/03/12 05:01:05;;;;;;;8.52;4.13;;;2.40;64.90;;;;;;5033465;28;20582;-66
2022/03/12 05:03:31;;;;;;;6.75;4.25;;;2.40;65.20;;;;;;5035771;28;20101;-66
2022/03/12 05:05:59;;;;;;;8.60;4.68;;;2.30;63.10;;;;;;5032773;28;20117;-66
2022/03/12 05:08:36;;;;;;;7.80;3.97;;;2.30;62.30;;;;;;5033875;28;20025;-67
2022/03/12 05:11:02;;;;;;;7.72;4.50;;;2.30;61.90;;;;;;5034617;28;20071;-67
2022/03/12 05:13:28;;;;;;;8.05;4.57;;;2.20;62.90;;;;;;5042495;28;20084;-67
2022/03/12 05:15:56;;;;;;;10.10;4.97;;;2.20;61.00;;;;;;5033213;28;20505;-66
2022/03/12 05:18:25;;;;;;;9.48;4.57;;;2.20;58.10;;;;;;5041531;28;20037;-66
2022/03/12 05:20:52;;;;;;;9.07;4.10;;;2.10;58.40;;;;;;5033054;28;20053;-66
2022/03/12 05:23:19;;;;;;;7.43;4.28;;;2.20;59.30;;;;;;5040489;28;20223;-67
2022/03/12 05:25:47;;;;;;;7.95;4.45;;;2.20;60.20;;;;;;5041834;28;20112;-66
2022/03/12 05:28:22;;;;;;;7.70;4.43;;;2.20;59.80;;;;;;5037588;28;20390;-67
2022/03/12 05:30:49;;;;;;;7.65;4.38;;;2.20;58.50;;;;;;5036915;28;20123;-67
2022/03/12 05:33:17;;;;;;;7.82;4.55;;;2.20;57.80;;;;;;5053043;28;20182;-67
2022/03/12 05:35:44;;;;;;;8.98;4.57;;;2.10;58.90;;;;;;5039768;28;20480;-67
2022/03/12 05:38:14;;;;;;;7.43;4.57;;;2.20;59.00;;;;;;5046755;28;20028;-67
2022/03/12 05:40:42;;;;;;;7.68;4.30;;;2.20;59.80;;;;;;5040302;28;20131;-67
2022/03/12 05:43:12;;;;;;;7.70;4.28;;;2.30;59.10;;;;;;5039418;28;20040;-66
2022/03/12 05:45:38;;;;;;;6.72;4.18;;;2.30;59.10;;;;;;5040669;28;20116;-67
2022/03/12 05:48:08;;;;;;;7.63;4.43;;;2.30;59.20;;;;;;5056147;28;20350;-67
2022/03/12 05:50:34;;;;;;;8.65;4.40;;;2.30;59.10;;;;;;5038206;28;20095;-66
2022/03/12 05:53:00;;;;;;;7.55;4.15;;;2.30;59.80;;;;;;5046530;28;20033;-67
2022/03/12 05:55:25;;;;;;;7.22;4.22;;;2.30;58.80;;;;;;5050390;28;20385;-66
2022/03/12 05:57:51;;;;;;;6.60;4.05;;;2.20;58.30;;;;;;5048431;28;20021;-67
2022/03/12 06:00:18;;;;;;;6.82;4.38;;;2.20;58.30;;;;;;5045010;28;20032;-66
2022/03/12 06:02:51;;;;;;;9.32;4.60;;;2.10;56.00;;;;;;5044478;28;20044;-66
2022/03/12 06:05:17;;;;;;;;;;;2.10;59.20;;;;;;5038005;28;20029;-67
2022/03/12 06:07:46;;;;;;;6.43;4.18;;;2.10;57.80;;;;;;5031916;28;19974;-67
2022/03/12 06:10:17;;;;;;;7.20;4.05;;;2.10;56.80;;;;;;5046390;28;20028;-66
2022/03/12 06:12:43;;;;;;;9.45;4.30;;;2.10;57.80;;;;;;5038583;28;20029;-67
2022/03/12 06:15:10;;;;;;;8.55;4.45;;;2.10;57.40;;;;;;5038874;28;20022;-66
2022/03/12 06:17:36;;;;;;;9.57;4.53;;;2.20;57.90;;;;;;5041305;28;20032;-67
2022/03/12 06:20:02;;;;;;;6.13;4.18;;;2.10;57.30;;;;;;5035291;28;20025;-66
2022/03/12 06:22:28;;;;;;;7.85;4.10;;;2.10;57.30;;;;;;5029511;28;20033;-67
2022/03/12 06:24:53;;;;;;;6.57;4.13;;;2.10;58.20;;;;;;5032418;28;20029;-67
2022/03/12 06:27:20;;;;;;;6.03;3.95;;;2.10;58.00;;;;;;5035614;28;20131;-67
2022/03/12 06:29:46;;;;;;;5.72;3.70;;;2.10;59.20;;;;;;5035869;28;20026;-66
2022/03/12 06:32:14;;;;;;;6.88;3.83;;;2.10;59.60;;;;;;5043026;28;20038;-67
2022/03/12 06:34:43;;;;;;;7.05;4.18;;;2.10;59.90;;;;;;5036308;28;20041;-67
2022/03/12 06:37:09;;;;;;;8.15;4.43;;;2.10;59.20;;;;;;5037810;28;20155;-67
2022/03/12 06:39:35;;;;;;;7.72;3.88;;;2.10;60.00;;;;;;5039883;28;20111;-67
2022/03/12 06:42:02;;;;;;;6.72;3.65;;;2.20;59.60;;;;;;5035020;28;20602;-67
2022/03/12 06:44:32;;;;;;;10.60;5.03;;;2.20;59.70;;;;;;5035771;28;20052;-67
2022/03/12 06:46:59;;;;;;;7.40;4.93;;;2.30;59.30;;;;;;5045650;28;20032;-66
2022/03/12 06:49:25;;;;;;;8.65;4.38;;;2.40;60.30;;;;;;5030390;28;20041;-67
2022/03/12 06:51:51;;;;;;;6.93;4.20;;;2.50;59.60;;;;;;5039127;28;20476;-67
2022/03/12 06:54:16;;;;;;;8.18;4.57;;;2.50;59.30;;;;;;5032875;28;20048;-67
2022/03/12 06:56:42;;;;;;;7.07;4.13;;;2.60;58.60;;;;;;5040570;28;20370;-68
2022/03/12 06:59:08;;;;;;;6.60;3.85;;;2.60;62.20;;;;;;5028406;28;20321;-68
2022/03/12 07:01:34;;;;;;;6.93;4.15;;;2.60;61.90;;;;;;5030670;28;20037;-68
2022/03/12 07:03:59;;;;;;;8.38;4.80;;;2.60;62.30;;;;;;5057060;28;20547;-68
2022/03/12 07:06:25;;;;;;;7.57;4.60;;;2.70;64.80;;;;;;5045794;28;20036;-68
2022/03/12 07:08:51;;;;;;;6.72;4.40;;;2.80;63.50;;;;;;5025228;28;20040;-68
2022/03/12 07:11:17;;;;;;;7.82;4.60;;;2.90;62.70;;;;;;5029520;28;20056;-68
2022/03/12 07:13:43;;;;;;;7.80;4.68;;;3.10;61.80;;;;;;5046146;28;20040;-68
2022/03/12 07:16:08;;;;;;;7.47;4.47;;;3.20;62.50;;;;;;5040665;28;20037;-68
2022/03/12 07:18:34;;;;;;;8.40;4.70;;;3.30;61.80;;;;;;5041925;28;20039;-68
2022/03/12 07:21:00;;;;;;;8.45;4.30;;;3.30;60.40;;;;;;5060685;28;20033;-68
2022/03/12 07:23:26;;;;;;;7.78;4.78;;;3.40;60.90;;;;;;5056700;28;20422;-68
2022/03/12 07:25:52;;;;;;;11.70;4.93;;;3.40;61.70;;;;;;5063286;28;20029;-68
2022/03/12 07:28:19;;;;;;;7.60;4.63;;;3.50;62.10;;;;;;5064463;28;20336;-68
2022/03/12 07:30:45;;;;;;;7.82;5.03;;;3.60;61.20;;;;;;5035071;28;20037;-68
2022/03/12 07:33:10;;;;;;;7.57;4.70;;;3.60;59.60;;;;;;5046489;28;20062;-68
2022/03/12 07:35:37;;;;;;;10.82;4.97;;;3.70;59.20;;;;;;5030153;28;20022;-68
2022/03/12 07:38:03;;;;;;;9.57;4.70;;;3.70;57.90;;;;;;5049772;28;20385;-68
2022/03/12 07:40:29;;;;;;;7.50;4.90;;;3.80;57.40;;;;;;5055719;28;20079;-68
2022/03/12 07:42:55;;;;;;;8.05;4.57;;;3.80;57.40;;;;;;5037464;28;20028;-68
2022/03/12 07:45:21;;;;;;;8.02;5.05;;;3.80;56.60;;;;;;5037152;28;20033;-75
2022/03/12 07:47:49;;;;;;;9.15;4.65;;;3.90;59.50;;;;;;5048377;28;20037;-78
2022/03/12 07:50:15;;;;;;;9.40;4.85;;;4.00;58.40;;;;;;5026902;28;20056;-78
2022/03/12 07:52:42;;;;;;;9.40;4.90;;;4.00;59.30;;;;;;5036777;28;20034;-79
2022/03/12 07:55:11;;;;;;;9.75;4.55;;;4.10;59.80;;;;;;5027520;28;20034;-79
2022/03/12 07:57:37;;;;;;;8.30;4.53;;;4.10;58.50;;;;;;5047627;28;20470;-79
2022/03/12 08:00:10;;;;;;;8.07;4.70;;;4.20;57.00;;;;;;5041185;28;20036;-79
2022/03/12 08:02:36;;;;;;;7.95;4.57;;;4.20;58.00;;;;;;5051683;28;20045;-79
2022/03/12 08:05:02;;;;;;;7.93;4.68;;;4.30;58.20;;;;;;5044048;28;20037;-79
2022/03/12 08:07:28;;;;;;;7.75;4.93;;;4.40;57.60;;;;;;5043606;28;20542;-80
2022/03/12 08:09:59;;;;;;;7.93;4.78;;;4.40;58.50;;;;;;5038412;28;20111;-80
2022/03/12 08:12:31;;;;;;;11.23;4.85;;;4.50;57.80;;;;;;5040890;28;20116;-80
2022/03/12 08:15:05;;;;;;;6.20;3.70;;;4.60;56.80;;;;;;5042040;28;20108;-80
2022/03/12 08:17:31;;;;;;;;;;;4.70;56.30;;;;;;4690744;28;10000431;-80
2022/03/12 08:19:57;;;;;;;7.85;5.00;;;4.80;56.70;;;;;;5041032;28;19912;-80
2022/03/12 08:22:22;;;;;;;9.00;5.10;;;4.90;57.10;;;;;;5034334;28;20396;-80
2022/03/12 08:24:49;;;;;;;8.32;5.05;;;5.00;57.50;;;;;;5039912;28;20032;-80
2022/03/12 08:27:15;;;;;;;8.93;5.18;;;5.10;56.90;;;;;;5033328;28;20048;-78
2022/03/12 08:29:43;;;;;;;13.40;5.72;;;5.10;56.10;;;;;;5044621;28;20573;-79
2022/03/12 08:32:08;;;;;;;8.32;5.22;;;5.20;55.10;;;;;;5050429;28;20044;-79
2022/03/12 08:34:34;;;;;;;8.35;5.22;;;5.30;54.50;;;;;;5033864;28;20021;-79
2022/03/12 08:37:02;;;;;;;7.72;4.95;;;5.30;55.20;;;;;;5043554;28;20056;-78
2022/03/12 08:39:27;;;;;;;10.40;5.13;;;5.40;55.00;;;;;;5049205;28;20395;-79
2022/03/12 08:41:53;;;;;;;7.93;5.20;;;5.50;54.70;;;;;;5034432;28;20028;-78
2022/03/12 08:44:19;;;;;;;9.27;5.47;;;5.60;54.20;;;;;;5031431;28;20047;-78
2022/03/12 08:46:46;;;;;;;10.70;5.60;;;5.70;54.30;;;;;;5031588;28;20388;-78
2022/03/12 08:49:13;;;;;;;9.35;5.68;;;5.80;54.50;;;;;;5038473;28;20036;-78
2022/03/12 08:51:39;;;;;;;7.78;5.35;;;5.90;54.60;;;;;;5042108;28;20036;-79
2022/03/12 08:54:05;;;;;;;10.63;5.40;;;6.10;75.70;;;;;;5026441;28;20248;-77
2022/03/12 08:56:31;;;;;;;8.77;5.57;;;6.30;56.10;;;;;;5038287;28;20064;-78
2022/03/12 08:58:57;;;;;;;13.00;5.72;;;6.60;61.70;;;;;;5036765;28;20029;-78
2022/03/12 09:01:24;;;;;;;10.55;5.65;;;6.70;55.80;;;;;;5041626;28;20041;-77
2022/03/12 09:03:49;;;;;;;9.23;5.82;;;6.90;46.40;;;;;;5039358;28;20460;-78
2022/03/12 09:06:17;;;;;;;13.80;6.15;;;7.00;45.70;;;;;;5032164;28;20029;-78
2022/03/12 09:08:44;;;;;;;10.50;5.85;;;7.10;46.40;;;;;;5035876;28;20021;-79
2022/03/12 09:11:10;;;;;;;11.40;5.57;;;7.20;46.80;;;;;;5041941;28;20074;-79
2022/03/12 09:13:35;;;;;;;9.82;5.28;;;7.30;45.80;;;;;;5037780;28;20029;-78
2022/03/12 09:16:01;;;;;;;9.18;5.78;;;7.30;46.90;;;;;;5032826;28;20034;-77
2022/03/12 09:18:27;;;;;;;12.68;6.00;;;7.50;46.50;;;;;;5038634;28;20131;-78
2022/03/12 09:20:52;;;;;;;9.55;5.93;;;7.50;46.00;;;;;;5041335;28;20507;-77
2022/03/12 09:23:21;;;;;;;8.38;5.75;;;7.60;46.00;;;;;;5045707;28;20658;-75
2022/03/12 09:25:49;;;;;;;8.52;5.40;;;7.70;46.10;;;;;;5038878;28;20021;-75
2022/03/12 09:28:15;;;;;;;12.65;5.78;;;7.80;47.90;;;;;;5036884;28;20048;-75
2022/03/12 09:30:42;;;;;;;10.63;6.53;;;7.90;46.70;;;;;;5039475;28;20029;-75
2022/03/12 09:33:09;;;;;;;12.30;6.35;;;8.00;46.40;;;;;;5044816;28;20041;-74
2022/03/12 09:35:35;;;;;;;12.30;6.10;;;8.10;46.80;;;;;;5038405;28;20162;-74
2022/03/12 09:38:01;;;;;;;10.77;6.38;;;8.20;45.10;;;;;;5035955;28;20037;-74
2022/03/12 09:40:28;;;;;;;9.32;6.20;;;8.20;45.70;;;;;;5031873;28;20095;-74
2022/03/12 09:42:53;;;;;;;9.77;6.22;;;8.30;45.90;;;;;;5032741;28;20056;-75
2022/03/12 09:45:21;;;;;;;11.32;6.10;;;8.40;45.60;;;;;;5043473;28;20543;-75
2022/03/12 09:47:47;;;;;;;9.95;6.05;;;8.50;45.80;;;;;;5046527;28;20476;-75
2022/03/12 09:50:13;;;;;;;9.15;6.07;;;8.70;45.30;;;;;;5044709;28;20131;-77
2022/03/12 09:52:40;;;;;;;10.32;6.38;;;8.70;45.00;;;;;;5036562;28;20440;-75
2022/03/12 09:55:06;;;;;;;10.10;5.97;;;8.70;45.10;;;;;;5039951;28;20029;-78
2022/03/12 09:57:31;;;;;;;9.85;6.07;;;8.80;45.80;;;;;;5035329;28;20091;-79
2022/03/12 09:59:57;;;;;;;10.40;6.40;;;8.90;46.20;;;;;;5048616;28;20029;-78
2022/03/12 10:02:23;;;;;;;11.00;6.13;;;9.00;46.00;;;;;;5038806;28;20047;-78
2022/03/12 10:04:49;;;;;;;11.55;6.35;;;9.20;45.00;;;;;;5043418;28;20040;-77
2022/03/12 10:07:14;;;;;;;10.10;6.15;;;9.20;45.10;;;;;;5039403;28;20045;-78
2022/03/12 10:09:41;;;;;;;15.55;6.80;;;9.20;45.50;;;;;;5047016;28;20033;-75
2022/03/12 10:12:07;;;;;;;10.45;6.38;;;9.30;46.10;;;;;;5034894;28;20029;-75
2022/03/12 10:14:33;;;;;;;11.90;6.28;;;9.40;45.90;;;;;;5037591;28;20031;-75
2022/03/12 10:17:02;;;;;;;11.10;7.13;;;9.50;46.20;;;;;;5047760;28;20037;-75
2022/03/12 10:19:30;;;;;;;10.27;6.30;;;9.60;45.00;;;;;;5034565;28;20064;-75
2022/03/12 10:21:57;;;;;;;12.02;6.38;;;9.50;45.30;;;;;;5038371;28;20085;-76
2022/03/12 10:24:23;;;;;;;11.38;7.10;;;9.60;45.90;;;;;;5045876;28;20029;-76
2022/03/12 10:26:49;;;;;;;9.68;6.35;;;9.50;45.40;;;;;;5041141;28;20033;-77
2022/03/12 10:29:14;;;;;;;11.80;6.45;;;9.50;45.30;;;;;;5047327;28;20384;-77
2022/03/12 10:31:41;;;;;;;13.93;7.30;;;9.60;46.50;;;;;;5039345;28;20116;-75
2022/03/12 10:34:21;;;;;;;11.85;6.93;;;9.70;46.70;;;;;;5035749;28;20025;-76
2022/03/12 10:36:48;;;;;;;10.18;6.20;;;;;;;;;;5029024;28;20029;-74
2022/03/12 10:39:14;;;;;;;10.27;6.15;;;;;;;;;;5045399;28;20087;-74
2022/03/12 10:41:41;;;;;;;11.55;6.72;;;10.20;46.00;;;;;;5036762;28;20404;-78
2022/03/12 10:44:07;;;;;;;11.50;6.50;;;10.30;45.90;;;;;;5045855;28;20033;-76
2022/03/12 10:46:35;;;;;;;11.73;6.80;;;10.50;46.00;;;;;;5048550;28;20033;-76
2022/03/12 10:49:02;;;;;;;11.48;6.68;;;10.60;44.80;;;;;;5040700;28;20389;-77
2022/03/12 10:51:34;;;;;;;10.82;6.60;;;10.60;45.70;;;;;;5041151;28;20029;-77
2022/03/12 10:54:08;;;;;;;9.98;6.50;;;10.70;45.80;;;;;;5046421;28;20037;-77
2022/03/12 10:56:50;;;;;;;9.38;6.32;;;10.80;45.90;;;;;;5043079;28;20021;-77
2022/03/12 10:59:19;;;;;;;12.93;6.85;;;10.80;45.80;;;;;;5039829;28;20444;-77
2022/03/12 11:01:56;;;;;;;13.10;7.13;;;10.90;45.50;;;;;;5040213;28;20029;-77
2022/03/12 11:04:26;;;;;;;10.27;7.18;;;11.00;46.10;;;;;;5038381;28;20410;-77
2022/03/12 11:06:55;;;;;;;12.60;6.70;;;11.00;45.50;;;;;;5041726;28;20033;-77
2022/03/12 11:09:36;;;;;;;14.35;7.20;;;11.00;45.20;;;;;;5046392;28;20480;-77
2022/03/12 11:12:03;;;;;;;13.18;7.78;;;11.10;45.40;;;;;;5043540;28;20087;-76
2022/03/12 11:14:31;;;;;;;12.95;7.00;;;11.20;46.10;;;;;;5037688;28;20025;-76
2022/03/12 11:16:57;;;;;;;9.68;6.60;;;11.20;45.70;;;;;;5045780;28;20400;-77
2022/03/12 11:19:39;;;;;;;12.02;7.03;;;11.30;45.90;;;;;;5046049;28;20033;-76
2022/03/12 11:22:10;;;;;;;9.95;6.97;;;11.30;46.50;;;;;;5043074;28;20528;-77
2022/03/12 11:24:54;;;;;;;11.25;7.15;;;11.30;46.40;;;;;;5041991;28;20029;-77
2022/03/12 11:27:34;;;;;;;15.13;7.50;;;11.40;46.10;;;;;;5037765;28;20539;-77
2022/03/12 11:30:09;;;;;;;13.10;7.35;;;11.50;45.90;;;;;;5028587;28;20033;-76
2022/03/12 11:32:44;;;;;;;11.02;7.25;;;11.60;46.20;;;;;;5038378;28;20087;-77
2022/03/12 11:35:13;;;;;;;15.07;7.15;;;11.60;45.90;;;;;;5037463;28;20029;-76
2022/03/12 11:37:41;;;;;;;13.02;7.50;;;11.70;45.70;;;;;;5032862;28;20705;-76
2022/03/12 11:40:11;;;;;;;11.48;7.13;;;11.70;46.30;;;;;;5041735;28;20309;-76
2022/03/12 11:42:39;;;;;;;10.45;7.45;;;11.80;46.20;;;;;;5042237;28;20095;-76
2022/03/12 11:45:09;;;;;;;11.75;7.30;;;11.80;45.90;;;;;;5032456;28;20036;-76
2022/03/12 11:47:40;;;;;;;13.70;8.23;;;11.90;45.40;;;;;;5042745;28;20041;-76
2022/03/12 11:50:22;;;;;;;12.13;7.70;;;11.90;46.20;;;;;;5033004;28;20099;-76
2022/03/12 11:52:47;;;;;;;12.88;7.30;;;12.00;46.20;;;;;;5032598;28;20033;-77
2022/03/12 11:55:18;;;;;;;13.90;8.30;;;12.10;46.30;;;;;;5034239;28;20039;-77
2022/03/12 11:57:48;;;;;;;11.90;7.95;;;12.20;45.70;;;;;;5043862;28;20476;-76
2022/03/12 12:00:28;;;;;;;14.00;7.57;;;12.20;45.70;;;;;;5032518;28;20041;-77
2022/03/12 12:02:54;;;;;;;13.43;7.78;;;12.30;47.00;;;;;;5032040;28;20041;-76
2022/03/12 12:05:22;;;;;;;11.93;7.97;;;12.50;47.20;;;;;;5032284;28;20092;-77
2022/03/12 12:07:51;;;;;;;13.40;8.27;;;12.60;46.40;;;;;;5036225;28;20371;-76
2022/03/12 12:10:18;;;;;;;13.05;7.90;;;12.70;46.70;;;;;;5039524;28;20040;-76
2022/03/12 12:12:46;;;;;;;14.07;8.15;;;12.90;47.30;;;;;;5039053;28;20039;-75
2022/03/12 12:15:17;;;;;;;13.00;7.93;;;12.90;46.60;;;;;;5040295;28;20021;-76
2022/03/12 12:17:43;;;;;;;16.80;8.52;;;12.90;45.80;;;;;;5039964;28;20108;-75
2022/03/12 12:20:10;;;;;;;12.77;7.93;;;12.80;45.90;;;;;;5033450;28;20029;-76
2022/03/12 12:22:36;;;;;;;16.05;8.20;;;12.80;46.40;;;;;;5037166;28;20328;-76
2022/03/12 12:25:04;;;;;;;14.90;8.07;;;12.90;46.40;;;;;;5042604;28;20041;-75
2022/03/12 12:28:00;;;;;;;17.88;9.18;;;12.90;47.20;;;;;;5047535;28;20186;-76
2022/03/12 12:30:25;;;;;;;13.65;8.40;;;13.20;47.50;;;;;;5010922;28;20103;-75
2022/03/12 12:32:52;;;;;;;15.40;9.00;;;13.30;47.70;;;;;;5034620;28;20033;-75
2022/03/12 12:35:19;;;;;;;13.73;8.57;;;13.30;47.60;;;;;;5031001;28;20032;-75
2022/03/12 12:37:58;;;;;;;13.45;8.57;;;13.30;46.60;;;;;;5032401;28;20090;-76
2022/03/12 12:40:42;;;;;;;18.55;8.10;;;13.40;47.30;;;;;;5028101;28;20244;-75
2022/03/12 12:43:11;;;;;;;14.90;8.85;;;13.50;48.00;;;;;;5027635;28;20128;-76
2022/03/12 12:46:05;;;;;;;15.60;8.73;;;13.50;47.80;;;;;;5032320;28;20021;-75
2022/03/12 12:48:32;;;;;;;13.35;8.90;;;13.60;48.00;;;;;;5031074;28;20091;-76
2022/03/12 12:51:08;;;;;;;12.63;8.73;;;13.70;48.20;;;;;;5033984;28;20046;-75
2022/03/12 12:53:49;;;;;;;16.70;8.80;;;13.70;48.40;;;;;;5034589;28;20047;-73